Ana Sayfa
METAR-TAF:

METAR-TAF

Havaalanları :

Boonville, Missouri, Amerika Birleşik Devletleri

Enlem: 38-56-48N, Boylam: 092-40-58W, yükseklik: 218 m

Güncel hava durumu gözlemi

Rapor saat 21:55 UTC de 15 dakika önce yapıldı.
Rüzgar güneydoğudan 6 kt
Sıcaklık 33°C
Nem 49%
Basınç 1024 hPa
Görüş mesafesi: 16.1 km
Açık gökyüzü

METAR: KVER 202155Z AUTO 14006KT 10SM CLR 33/21 A3023 RMK AO2 T03260212

Saat: 17:10 (22:10 UTC)


TAF: eksik

4.000'den fazla havaalanı için hava durumu gözlemleri ve tahminleri (METAR ve TAF raporları).

Kullanılabilir istasyonlar harita üzerinde sarı ve kırmızı noktalarla gösterilir.

İstasyonun adını görmek için fareyi noktanın üzerinde gezdirin.

Sonrasında hava gözlem ve tahminlerini görmek için tıklayın.

Haritayı değiştirmek için: yaklaştırmak için siyah artı işaretli yeşil düğmeye ve uzaklaştırmak için de eksi işaretli düğmeye hızla tıklayın; bitişik haritalar için yeşil okları kullanın.


METAR-TAF: